Time;durP1;ratioP1;P1;durP2;ratioP2;P2;SDS_P1;SDS_P2;PMS_P1;PMS_P2;Temp;Humidity;BMP_temperature;BMP_pressure;BME280_temperature;BME280_humidity;BME280_pressure;Samples;Min_cycle;Max_cycle;Signal;HPM_P1;HPM_P2
2023/05/31 00:02:00;;;;;;;11.70;7.20;;;;;;;17.37;48.27;100445.94;108430;1257;65795;-70
2023/05/31 00:04:28;;;;;;;11.10;6.60;;;;;;;17.33;47.98;100445.80;108407;1260;61714;-69
2023/05/31 00:06:57;;;;;;;13.10;7.90;;;;;;;17.31;47.74;100450.49;108489;1258;66940;-68
2023/05/31 00:09:24;;;;;;;14.70;7.00;;;;;;;17.28;47.86;100451.12;108400;1258;59043;-68
2023/05/31 00:11:52;;;;;;;10.90;7.80;;;;;;;17.25;47.80;100447.39;108402;1261;58354;-68
2023/05/31 00:14:19;;;;;;;14.00;7.00;;;;;;;17.23;47.59;100444.41;108510;1260;65363;-68
2023/05/31 00:16:47;;;;;;;11.00;7.40;;;;;;;17.22;47.65;100444.30;108456;1257;60471;-65
2023/05/31 00:19:34;;;;;;;11.30;7.20;;;;;;;17.23;48.11;100445.66;108434;1257;62550;-66
2023/05/31 00:22:02;;;;;;;11.40;7.10;;;;;;;17.22;48.46;100444.89;108466;1257;59188;-71
2023/05/31 00:24:30;;;;;;;11.40;7.20;;;;;;;17.20;49.15;100444.52;108429;1257;60332;-71
2023/05/31 00:26:57;;;;;;;13.90;7.00;;;;;;;17.19;49.47;100444.09;108497;1257;63674;-66
2023/05/31 00:29:25;;;;;;;10.10;7.10;;;;;;;17.17;49.59;100445.19;108490;1259;61386;-70
2023/05/31 00:31:53;;;;;;;12.20;7.50;;;;;;;17.14;49.80;100446.21;108328;1257;64157;-69
2023/05/31 00:34:21;;;;;;;9.20;7.10;;;;;;;17.12;50.05;100446.45;108428;1257;60322;-72
2023/05/31 00:36:48;;;;;;;11.10;7.50;;;;;;;17.12;50.33;100449.37;108415;1261;58634;-73
2023/05/31 00:39:16;;;;;;;12.10;7.10;;;;;;;17.07;50.60;100448.73;108417;1257;63708;-72
2023/05/31 00:41:43;;;;;;;15.80;7.70;;;;;;;17.04;50.63;100447.86;108473;1259;61305;-68
2023/05/31 00:44:11;;;;;;;13.50;7.90;;;;;;;17.03;50.52;100448.66;108495;1259;64727;-69
2023/05/31 00:46:39;;;;;;;10.20;7.40;;;;;;;17.01;50.26;100448.85;108385;1259;58604;-70
2023/05/31 00:49:06;;;;;;;15.60;7.80;;;;;;;16.99;50.00;100451.58;108372;1257;59347;-69
2023/05/31 00:51:34;;;;;;;12.70;7.50;;;;;;;16.95;49.49;100454.09;108424;1257;65356;-73
2023/05/31 00:54:02;;;;;;;11.90;7.40;;;;;;;16.88;49.39;100455.02;108334;1258;60234;-68
2023/05/31 00:56:29;;;;;;;11.90;7.60;;;;;;;16.79;49.32;100461.02;108276;1257;62441;-73
2023/05/31 00:58:57;;;;;;;11.50;7.70;;;;;;;16.71;49.23;100468.51;108407;1257;61051;-71
2023/05/31 01:01:32;;;;;;;17.10;7.70;;;;;;;16.60;49.25;100469.45;108406;1257;58232;-70
2023/05/31 01:04:01;;;;;;;11.30;7.50;;;;;;;16.51;49.53;100464.32;108361;1257;63659;-68
2023/05/31 01:06:32;;;;;;;12.00;8.80;;;;;;;16.49;50.05;100462.21;108458;1257;60246;-67
2023/05/31 01:09:09;;;;;;;13.90;8.10;;;;;;;16.50;50.78;100466.17;108436;1257;62476;-69
2023/05/31 01:11:58;;;;;;;9.90;7.50;;;;;;;16.51;51.19;100471.05;108353;1257;58606;-71
2023/05/31 01:14:51;;;;;;;12.30;8.30;;;;;;;16.53;51.28;100472.30;108469;1259;58871;-70
2023/05/31 01:17:38;;;;;;;13.50;8.30;;;;;;;16.55;51.56;100471.54;108426;1257;65248;-69
2023/05/31 01:20:09;;;;;;;19.40;7.70;;;;;;;16.58;52.15;100469.82;108361;1260;62513;-70
2023/05/31 01:22:57;;;;;;;12.90;8.30;;;;;;;16.61;52.43;100468.66;108390;1257;75584;-71
2023/05/31 01:25:32;;;;;;;12.80;7.80;;;;;;;16.60;52.55;100466.64;108415;1258;59780;-72
2023/05/31 01:27:59;;;;;;;14.50;8.40;;;;;;;16.59;53.12;100468.16;108555;1259;60368;-67
2023/05/31 01:30:28;;;;;;;11.00;6.90;;;;;;;16.59;53.56;100469.06;108343;1260;65352;-71
2023/05/31 01:32:56;;;;;;;12.90;8.10;;;;;;;16.61;53.51;100469.13;108497;1258;60137;-71
2023/05/31 01:35:24;;;;;;;16.30;7.70;;;;;;;16.64;53.11;100470.58;108364;1259;62450;-71
2023/05/31 01:37:51;;;;;;;9.80;7.70;;;;;;;16.67;52.84;100475.10;108370;1259;58515;-70
2023/05/31 01:40:19;;;;;;;11.10;7.00;;;;;;;16.67;52.83;100476.66;108476;1259;60293;-66
2023/05/31 01:42:46;;;;;;;14.30;7.90;;;;;;;16.68;52.80;100479.56;108316;1257;63716;-67
2023/05/31 01:45:15;;;;;;;11.50;7.70;;;;;;;16.69;52.85;100475.71;108349;1258;68363;-69
2023/05/31 01:47:42;;;;;;;12.60;8.10;;;;;;;16.70;52.74;100474.45;108452;1260;62434;-72
2023/05/31 01:50:10;;;;;;;10.60;7.50;;;;;;;16.71;52.67;100479.11;108330;1262;59015;-70
2023/05/31 01:52:40;;;;;;;11.00;7.70;;;;;;;16.71;52.54;100479.41;108269;1257;59728;-69
2023/05/31 01:55:08;;;;;;;11.40;8.20;;;;;;;16.71;52.88;100481.96;108442;1259;65780;-69
2023/05/31 01:57:37;;;;;;;11.10;7.90;;;;;;;16.67;52.91;100481.09;108363;1257;62053;-71
2023/05/31 02:00:07;;;;;;;9.90;7.20;;;;;;;16.63;52.53;100478.10;108203;1264;63874;-72
2023/05/31 02:02:41;;;;;;;10.80;7.70;;;;;;;16.60;52.02;100483.05;108310;1260;60239;-70
2023/05/31 02:05:12;;;;;;;9.30;7.10;;;;;;;16.58;51.66;100485.92;108365;1257;59580;-69
2023/05/31 02:07:40;;;;;;;10.30;7.50;;;;;;;16.57;51.45;100485.20;108482;1257;63748;-70
2023/05/31 02:10:08;;;;;;;12.10;7.50;;;;;;;16.56;51.13;100487.61;108470;1258;61318;-68
2023/05/31 02:12:37;;;;;;;14.00;7.70;;;;;;;16.52;50.75;100487.76;108395;1258;63771;-71
2023/05/31 02:15:10;;;;;;;11.50;7.20;;;;;;;16.47;50.97;100490.42;108453;1258;60281;-72
2023/05/31 02:17:43;;;;;;;12.80;7.90;;;;;;;16.46;51.87;100492.11;108475;1257;59109;-72
2023/05/31 02:20:12;;;;;;;9.50;6.90;;;;;;;16.46;52.75;100497.79;108434;1257;63894;-69
2023/05/31 02:22:41;;;;;;;11.50;7.40;;;;;;;16.43;52.60;100498.60;108458;1259;60263;-69
2023/05/31 02:25:10;;;;;;;11.20;7.60;;;;;;;16.42;52.02;100503.48;108351;1259;64823;-66
2023/05/31 02:27:39;;;;;;;12.00;7.90;;;;;;;16.45;51.40;100508.55;108469;1257;58263;-70
2023/05/31 02:30:07;;;;;;;13.80;7.40;;;;;;;16.48;51.14;100512.14;108491;1257;58442;-73
2023/05/31 02:32:37;;;;;;;10.40;7.30;;;;;;;16.50;50.95;100516.46;108372;1259;63665;-70
2023/05/31 02:35:07;;;;;;;10.50;7.60;;;;;;;16.50;51.05;100513.84;108434;1257;60463;-67
2023/05/31 02:37:34;;;;;;;10.70;7.10;;;;;;;16.48;51.07;100516.91;108409;1259;62476;-68
2023/05/31 02:40:09;;;;;;;9.30;6.50;;;;;;;16.44;51.05;100518.33;108439;1259;60251;-69
2023/05/31 02:42:40;;;;;;;10.40;7.60;;;;;;;16.42;51.15;100515.73;108397;1257;58596;-73
2023/05/31 02:45:08;;;;;;;11.10;6.90;;;;;;;16.42;51.18;100512.54;108476;1257;65945;-67
2023/05/31 02:47:37;;;;;;;10.20;7.00;;;;;;;16.43;51.48;100514.36;108428;1257;63244;-69
2023/05/31 02:50:06;;;;;;;10.60;7.50;;;;;;;16.45;51.34;100514.16;108491;1257;63834;-70
2023/05/31 02:52:36;;;;;;;10.70;7.10;;;;;;;16.47;51.43;100511.16;108352;1264;58510;-67
2023/05/31 02:55:14;;;;;;;10.50;7.50;;;;;;;16.48;52.18;100510.31;108409;1263;60927;-71
2023/05/31 02:58:17;;;;;;;9.80;6.80;;;;;;;16.49;52.27;100515.73;107968;1266;64920;-73
2023/05/31 03:01:00;;;;;;;11.30;7.80;;;;;;;16.50;51.72;100517.33;108393;1257;61393;-69
2023/05/31 03:03:29;;;;;;;13.80;7.60;;;;;;;16.51;51.22;100519.73;108448;1260;65920;-68
2023/05/31 03:06:04;;;;;;;10.70;7.30;;;;;;;16.53;51.08;100526.45;108480;1257;59312;-69
2023/05/31 03:08:32;;;;;;;10.10;7.70;;;;;;;16.59;51.13;100532.45;108423;1257;58500;-68
2023/05/31 03:11:01;;;;;;;12.80;8.20;;;;;;;16.64;51.08;100535.95;108429;1260;65773;-72
2023/05/31 03:13:29;;;;;;;11.70;8.90;;;;;;;16.68;51.19;100539.30;108419;1259;60120;-69
2023/05/31 03:15:56;;;;;;;17.00;8.20;;;;;;;16.71;51.09;100545.33;108448;1259;63714;-69
2023/05/31 03:18:24;;;;;;;13.90;9.20;;;;;;;16.76;50.95;100552.32;108457;1259;60244;-67
2023/05/31 03:20:55;;;;;;;13.60;10.00;;;;;;;16.80;50.52;100555.27;108396;1257;58202;-67
2023/05/31 03:23:24;;;;;;;16.90;10.20;;;;;;;16.81;50.43;100557.36;108318;1257;64957;-69
2023/05/31 03:25:52;;;;;;;15.30;10.30;;;;;;;16.84;50.27;100557.52;108421;1257;61289;-68
2023/05/31 03:28:20;;;;;;;14.10;10.90;;;;;;;16.87;50.00;100554.89;108472;1260;63742;-67
2023/05/31 03:30:47;;;;;;;13.70;10.60;;;;;;;16.88;50.09;100550.98;108355;1260;58964;-68
2023/05/31 03:33:15;;;;;;;19.20;11.50;;;;;;;16.89;50.22;100549.36;108408;1260;60404;-73
2023/05/31 03:35:43;;;;;;;20.00;11.40;;;;;;;16.88;50.40;100552.98;108381;1257;67827;-73
2023/05/31 03:38:10;;;;;;;17.50;11.40;;;;;;;16.88;50.76;100555.80;108407;1257;62060;-68
2023/05/31 03:40:38;;;;;;;18.10;12.10;;;;;;;16.93;50.93;100551.46;108320;1260;63696;-66
2023/05/31 03:43:05;;;;;;;17.90;11.90;;;;;;;16.99;51.22;100550.58;108396;1257;58790;-62
2023/05/31 03:45:33;;;;;;;17.10;12.40;;;;;;;17.09;51.68;100557.39;108391;1257;58353;-67
2023/05/31 03:48:01;;;;;;;18.70;12.80;;;;;;;17.17;52.59;100554.38;108409;1259;64935;-69
2023/05/31 03:50:28;;;;;;;17.80;12.00;;;;;;;17.29;53.10;100552.43;107570;1260;62430;-71
2023/05/31 03:52:56;;;;;;;17.40;13.20;;;;;;;17.44;53.36;100551.98;106029;1259;62727;-66
2023/05/31 03:55:25;;;;;;;18.40;13.00;;;;;;;17.56;53.81;100554.25;106075;1258;60575;-67
2023/05/31 03:57:52;;;;;;;18.60;12.00;;;;;;;17.65;54.28;100558.70;105992;1260;60398;-67
2023/05/31 04:00:20;;;;;;;17.90;12.70;;;;;;;17.73;54.80;100564.25;103980;1258;63705;-69
2023/05/31 04:02:49;;;;;;;18.10;13.00;;;;;;;17.79;54.97;100564.02;108433;1257;61532;-71
2023/05/31 04:05:30;;;;;;;17.20;13.30;;;;;;;17.84;55.19;100566.48;108355;1260;62495;-67
2023/05/31 04:07:59;;;;;;;16.10;12.80;;;;;;;17.92;55.13;100570.08;108379;1259;58982;-65
2023/05/31 04:10:26;;;;;;;21.80;14.30;;;;;;;18.02;54.95;100573.91;108452;1259;58240;-69
2023/05/31 04:12:54;;;;;;;16.90;11.40;;;;;;;18.10;54.75;100577.13;108499;1260;64840;-70
2023/05/31 04:15:23;;;;;;;12.90;9.60;;;;;;;18.15;54.17;100584.78;108455;1257;61358;-72
2023/05/31 04:17:51;;;;;;;14.40;8.30;;;;;;;18.14;52.03;100587.02;108405;1257;63719;-67
2023/05/31 04:20:18;;;;;;;10.10;7.60;;;;;;;18.07;51.29;100585.80;108407;1257;58470;-67
2023/05/31 04:22:47;;;;;;;9.40;7.50;;;;;;;18.00;51.27;100587.82;108351;1257;59091;-69
2023/05/31 04:25:17;;;;;;;10.40;6.80;;;;;;;17.93;51.61;100588.95;105281;1260;64944;-70
2023/05/31 04:27:51;;;;;;;14.60;7.40;;;;;;;17.87;51.64;100589.46;108662;1259;61315;-68
2023/05/31 04:30:19;;;;;;;10.30;6.90;;;;;;;17.82;52.14;100595.61;105881;1258;63687;-71
2023/05/31 04:32:52;;;;;;;11.30;6.30;;;;;;;17.80;51.81;100598.28;105907;1257;60460;-70
2023/05/31 04:35:20;;;;;;;11.20;7.20;;;;;;;17.76;51.80;100603.14;108405;1259;63497;-71
2023/05/31 04:37:52;;;;;;;9.30;7.10;;;;;;;17.74;51.99;100604.48;108364;1257;65104;-72
2023/05/31 04:40:23;;;;;;;12.70;7.80;;;;;;;17.71;51.91;100607.79;108367;1260;62318;-67
2023/05/31 04:42:50;;;;;;;10.80;7.10;;;;;;;17.70;52.44;100608.40;108398;1257;62462;-72
2023/05/31 04:45:27;;;;;;;13.00;7.00;;;;;;;17.70;51.96;100612.13;108399;1260;59378;-68
2023/05/31 04:47:57;;;;;;;10.10;6.90;;;;;;;17.68;51.93;100615.60;108352;1257;60579;-68
2023/05/31 04:50:24;;;;;;;11.20;6.50;;;;;;;17.64;52.28;100616.29;108711;1254;65422;-70
2023/05/31 04:52:55;;;;;;;13.20;7.30;;;;;;;17.62;52.22;100614.90;108679;1254;60307;-68
2023/05/31 04:55:23;;;;;;;9.50;6.80;;;;;;;17.61;52.41;100617.19;108663;1254;62590;-70
2023/05/31 04:57:50;;;;;;;12.80;7.20;;;;;;;17.60;51.96;100620.11;108657;1254;58279;-69
2023/05/31 05:00:19;;;;;;;14.60;6.80;;;;;;;17.59;52.42;100622.70;108695;1259;61075;-68
2023/05/31 05:02:58;;;;;;;12.70;6.70;;;;;;;17.60;52.37;100623.08;108618;1256;64890;-70
2023/05/31 05:06:15;;;;;;;11.00;6.20;;;;;;;17.63;52.39;100627.77;108530;1254;61833;-66
2023/05/31 05:08:45;;;;;;;9.40;6.40;;;;;;;17.70;52.53;100632.52;108252;1267;62485;-69
2023/05/31 05:11:13;;;;;;;10.80;6.50;;;;;;;17.77;52.23;100632.02;108171;1260;60351;-70
2023/05/31 05:13:42;;;;;;;9.30;5.80;;;;;;;17.87;52.15;100633.98;108450;1260;59949;-67
2023/05/31 05:16:09;;;;;;;14.30;6.30;;;;;;;17.93;51.57;100636.99;108293;1259;65135;-69
2023/05/31 05:18:37;;;;;;;12.60;5.90;;;;;;;17.97;50.96;100635.91;108319;1258;61900;-67
2023/05/31 05:21:05;;;;;;;9.80;6.10;;;;;;;17.99;51.08;100641.16;108381;1260;67172;-65
2023/05/31 05:23:35;;;;;;;13.40;6.30;;;;;;;18.03;51.19;100638.08;108481;1259;60434;-65
2023/05/31 05:26:03;;;;;;;11.20;6.50;;;;;;;18.09;50.68;100642.31;108104;1268;59257;-70
2023/05/31 05:28:31;;;;;;;9.50;5.50;;;;;;;18.15;50.73;100645.54;108422;1260;65053;-71
2023/05/31 05:30:58;;;;;;;13.30;6.00;;;;;;;18.23;50.92;100646.60;108428;1259;61556;-67
2023/05/31 05:33:29;;;;;;;10.10;6.20;;;;;;;18.32;50.44;100651.16;108342;1260;65255;-68
2023/05/31 05:35:56;;;;;;;13.60;6.40;;;;;;;18.38;50.16;100653.86;108305;1264;59221;-68
2023/05/31 05:38:24;;;;;;;8.60;5.70;;;;;;;18.43;50.16;100652.98;108232;1258;58672;-67
2023/05/31 05:40:52;;;;;;;11.00;5.40;;;;;;;18.47;50.25;100654.83;108521;1254;64944;-66
2023/05/31 05:43:20;;;;;;;9.30;5.70;;;;;;;18.52;50.40;100651.09;108647;1259;60201;-58
2023/05/31 05:46:00;;;;;;;9.10;5.80;;;;;;;18.56;50.29;100652.21;108600;1255;62639;-60
2023/05/31 05:48:28;;;;;;;11.70;6.00;;;;;;;18.59;50.62;100648.34;108584;1259;60457;-63
2023/05/31 05:50:58;;;;;;;9.60;6.00;;;;;;;18.62;50.56;100645.91;108580;1254;59077;-65
2023/05/31 05:53:27;;;;;;;9.00;5.50;;;;;;;18.64;50.58;100645.50;108589;1259;65054;-61
2023/05/31 05:55:54;;;;;;;9.40;5.50;;;;;;;18.65;50.21;100645.77;108565;1254;60108;-60
2023/05/31 05:58:25;;;;;;;11.40;5.80;;;;;;;18.66;50.70;100644.56;108622;1254;63781;-62
2023/05/31 06:01:12;;;;;;;10.00;5.70;;;;;;;18.71;50.44;100642.25;108747;1257;58464;-60
2023/05/31 06:03:40;;;;;;;8.30;5.30;;;;;;;18.78;50.44;100645.11;108696;1259;58988;-61
2023/05/31 06:06:08;;;;;;;10.10;5.30;;;;;;;18.83;50.50;100648.48;108729;1254;65492;-63
2023/05/31 06:08:35;;;;;;;8.90;5.10;;;;;;;18.89;50.97;100650.09;108693;1254;60263;-60
2023/05/31 06:17:42;;;;;;;8.90;4.80;;;;;;;18.94;50.75;100652.92;101173;1299;599416;-68
2023/05/31 06:20:21;;;;;;;9.70;4.70;;;;;;;19.22;49.82;100653.38;103235;1273;58988;-62
2023/05/31 06:22:52;;;;;;;9.80;4.80;;;;;;;19.29;49.68;100655.17;107157;1269;57713;-69
2023/05/31 06:25:22;;;;;;;13.10;5.30;;;;;;;19.36;49.38;100657.48;107624;1273;65834;-64
2023/05/31 06:27:50;;;;;;;12.60;4.70;;;;;;;19.43;49.16;100660.41;107955;1269;61398;-63
2023/05/31 06:30:17;;;;;;;8.60;5.10;;;;;;;19.50;48.94;100658.71;107694;1267;189907;-64
2023/05/31 06:32:47;;;;;;;7.40;4.40;;;;;;;19.57;48.95;100656.58;107901;1267;57869;-60
2023/05/31 06:35:20;;;;;;;10.10;5.00;;;;;;;19.63;48.75;100657.48;107899;1267;59331;-68
2023/05/31 06:37:48;;;;;;;10.60;4.50;;;;;;;19.70;48.46;100654.80;107972;1267;63434;-66
2023/05/31 06:40:23;;;;;;;9.10;3.80;;;;;;;19.78;47.77;100658.95;107962;1261;68013;-90
2023/05/31 06:42:59;;;;;;;11.80;4.70;;;;;;;19.85;47.97;100658.67;107010;1267;73219;-90
2023/05/31 06:46:11;;;;;;;7.10;3.80;;;;;;;19.91;47.20;100660.45;108887;1260;57287;-58
2023/05/31 06:48:57;;;;;;;6.60;3.60;;;;;;;19.97;47.88;100658.16;104434;1261;59756;-55
2023/05/31 06:51:51;;;;;;;10.60;3.90;;;;;;;20.06;47.69;100661.11;104472;1265;62833;-59
2023/05/31 06:54:42;;;;;;;6.90;3.50;;;;;;;20.14;48.01;100658.68;104655;1264;61400;-59
2023/05/31 06:57:10;;;;;;;8.10;3.30;;;;;;;20.23;46.34;100653.08;108506;1260;71785;-58
2023/05/31 06:59:37;;;;;;;6.70;3.60;;;;;;;20.30;45.99;100655.58;108604;1259;57387;-59
2023/05/31 07:02:06;;;;;;;7.90;3.60;;;;;;;20.38;45.03;100651.96;108572;1260;57763;-57
2023/05/31 07:04:33;;;;;;;6.70;3.30;;;;;;;20.47;44.18;100653.45;108647;1259;62990;-59
2023/05/31 07:07:03;;;;;;;11.30;3.00;;;;;;;20.52;43.39;100653.70;108513;1259;61387;-57
2023/05/31 07:09:32;;;;;;;8.40;3.60;;;;;;;20.57;43.18;100653.13;108508;1262;62480;-56
2023/05/31 07:12:00;;;;;;;10.20;3.40;;;;;;;20.62;43.22;100655.64;108576;1259;58599;-59
2023/05/31 07:15:10;;;;;;;7.50;3.20;;;;;;;20.67;43.30;100656.01;108675;1259;58084;-59
2023/05/31 07:17:39;;;;;;;5.70;3.20;;;;;;;20.74;43.22;100652.06;108550;1259;64083;-58
2023/05/31 07:20:08;;;;;;;5.00;2.80;;;;;;;20.81;42.48;100654.60;108587;1259;62040;-61
2023/05/31 07:22:35;;;;;;;7.60;3.00;;;;;;;20.87;41.89;100651.42;108681;1259;62495;-56
2023/05/31 07:25:04;;;;;;;8.70;3.90;;;;;;;20.93;41.95;100650.65;108566;1260;57801;-56
2023/05/31 07:27:31;;;;;;;7.10;3.10;;;;;;;21.00;41.66;100651.35;108610;1261;58000;-57
2023/05/31 07:29:59;;;;;;;9.00;3.50;;;;;;;21.06;41.57;100651.14;108534;1260;62880;-60
2023/05/31 07:32:52;;;;;;;10.40;3.90;;;;;;;21.12;41.85;100654.27;108641;1261;60117;-65
2023/05/31 07:36:13;;;;;;;6.90;3.30;;;;;;;21.20;41.33;100657.63;108575;1259;62542;-60
2023/05/31 07:38:41;;;;;;;7.60;3.20;;;;;;;21.26;40.77;100652.03;108624;1260;60236;-59
2023/05/31 07:41:08;;;;;;;6.90;2.60;;;;;;;21.30;41.28;100652.81;108569;1260;57608;-59
2023/05/31 07:43:36;;;;;;;7.70;3.10;;;;;;;21.36;41.21;100653.25;108611;1260;64205;-61
2023/05/31 07:46:04;;;;;;;6.40;3.20;;;;;;;21.41;41.38;100655.76;108603;1260;60132;-60
2023/05/31 07:48:33;;;;;;;6.50;3.00;;;;;;;21.48;40.93;100655.69;108660;1260;63666;-60
2023/05/31 07:51:01;;;;;;;6.00;3.10;;;;;;;21.54;40.95;100654.04;108608;1260;57449;-61
2023/05/31 07:53:28;;;;;;;7.10;3.40;;;;;;;21.59;41.14;100655.29;108795;1256;58946;-66
2023/05/31 07:55:56;;;;;;;8.00;3.60;;;;;;;21.63;41.20;100652.90;108801;1256;64132;-61
2023/05/31 07:58:24;;;;;;;6.50;3.40;;;;;;;21.71;41.42;100658.22;108762;1256;60948;-61
2023/05/31 08:00:52;;;;;;;12.30;4.00;;;;;;;21.78;41.57;100658.92;108819;1256;63002;-61
2023/05/31 08:03:20;;;;;;;6.80;3.20;;;;;;;21.82;40.37;100654.52;108767;1256;59749;-60
2023/05/31 08:05:49;;;;;;;7.90;3.50;;;;;;;21.84;40.42;100651.90;108771;1256;57730;-63
2023/05/31 08:08:17;;;;;;;6.00;2.90;;;;;;;21.86;39.90;100652.05;108841;1256;64213;-63
2023/05/31 08:10:44;;;;;;;5.90;2.50;;;;;;;21.89;40.24;100657.05;108733;1257;61561;-68
2023/05/31 08:13:11;;;;;;;5.30;2.60;;;;;;;21.90;39.54;100652.61;108765;1256;63907;-65
2023/05/31 08:15:39;;;;;;;8.10;2.90;;;;;;;21.94;39.14;100656.31;105485;1256;60077;-60
2023/05/31 08:18:07;;;;;;;7.10;2.70;;;;;;;21.96;38.84;100660.67;108756;1256;57511;-61
2023/05/31 08:20:34;;;;;;;8.90;3.00;;;;;;;21.97;38.56;100662.84;108772;1259;64767;-63
2023/05/31 08:23:02;;;;;;;6.70;2.80;;;;;;;21.99;38.12;100666.15;108824;1256;60160;-63
2023/05/31 08:25:29;;;;;;;9.20;2.90;;;;;;;22.04;38.27;100666.48;108957;1256;64166;-61
2023/05/31 08:27:57;;;;;;;6.70;2.50;;;;;;;22.08;37.28;100666.11;108828;1257;57541;-60
2023/05/31 08:30:24;;;;;;;6.00;2.70;;;;;;;22.10;36.65;100667.56;108810;1257;57558;-59
2023/05/31 08:36:11;;;;;;;9.00;2.80;;;;;;;22.19;35.44;100662.45;108789;1257;60492;-59
2023/05/31 08:38:38;;;;;;;8.30;2.40;;;;;;;22.25;35.77;100663.86;108762;1257;63834;-69
2023/05/31 08:41:06;;;;;;;8.20;2.30;;;;;;;22.29;35.32;100662.36;108781;1256;57634;-63
2023/05/31 08:43:34;;;;;;;6.50;2.60;;;;;;;22.32;34.26;100665.60;108729;1256;58394;-60
2023/05/31 08:46:35;;;;;;;7.20;2.20;;;;;;;22.33;34.20;100664.91;108764;1256;64181;-62
2023/05/31 08:52:20;;;;;;;6.30;2.30;;;;;;;22.40;33.24;100669.63;108749;1256;63801;-60
2023/05/31 08:54:54;;;;;;;8.80;2.10;;;;;;;22.47;33.63;100670.67;108881;1256;59038;-66
2023/05/31 08:57:26;;;;;;;6.30;2.50;;;;;;;22.51;32.76;100670.88;108668;1256;58003;-62
2023/05/31 08:59:53;;;;;;;5.60;2.40;;;;;;;22.53;32.88;100671.31;108806;1256;64143;-60
2023/05/31 09:02:21;;;;;;;9.10;2.70;;;;;;;22.55;33.51;100665.67;108829;1256;62558;-63
2023/05/31 09:04:48;;;;;;;5.70;2.60;;;;;;;22.57;33.71;100667.05;108779;1256;64312;-59
2023/05/31 09:07:17;;;;;;;6.80;2.80;;;;;;;22.58;35.11;100664.40;108195;1262;59704;-61
2023/05/31 09:09:45;;;;;;;7.10;2.90;;;;;;;22.64;34.35;100666.48;104680;1257;59627;-66
2023/05/31 09:12:14;;;;;;;7.50;3.20;;;;;;;22.70;36.09;100667.59;108247;1256;64113;-60
2023/05/31 09:14:42;;;;;;;7.90;3.60;;;;;;;22.73;38.52;100667.77;108711;1256;60138;-67
2023/05/31 09:17:09;;;;;;;11.20;3.70;;;;;;;22.76;38.93;100669.77;108478;1256;63870;-67
2023/05/31 09:19:41;;;;;;;8.40;4.10;;;;;;;22.78;39.18;100666.98;105038;1257;59612;-60
2023/05/31 09:22:08;;;;;;;6.50;3.40;;;;;;;22.80;39.97;100665.27;105755;1256;59823;-60
2023/05/31 09:24:38;;;;;;;6.10;3.40;;;;;;;22.82;40.09;100665.60;106223;1257;62950;-59
2023/05/31 09:27:06;;;;;;;11.00;3.60;;;;;;;22.84;40.10;100663.09;108767;1256;61822;-63
2023/05/31 09:29:34;;;;;;;6.30;3.50;;;;;;;22.87;39.14;100662.34;108828;1256;63763;-69
2023/05/31 09:32:09;;;;;;;8.80;3.40;;;;;;;22.91;37.41;100663.67;108695;1256;58321;-61
2023/05/31 09:34:36;;;;;;;;;;;;;;;22.93;36.53;100664.94;108808;1256;57719;-62
2023/05/31 09:37:05;;;;;;;7.10;2.60;;;;;;;22.96;36.46;100663.66;108839;1257;63524;-59
2023/05/31 09:39:32;;;;;;;8.80;3.20;;;;;;;23.00;36.81;100660.67;107882;1259;61456;-68
2023/05/31 09:42:00;;;;;;;7.60;2.90;;;;;;;23.03;37.00;100664.33;105938;1256;65857;-59
2023/05/31 09:44:53;;;;;;;6.30;3.20;;;;;;;23.05;37.23;100662.83;105178;1260;59842;-65
2023/05/31 09:47:25;;;;;;;10.60;3.40;;;;;;;23.07;36.20;100660.80;105165;1259;59584;-63
2023/05/31 09:49:56;;;;;;;5.80;2.70;;;;;;;23.09;36.55;100659.52;105644;1260;62916;-60
2023/05/31 09:52:27;;;;;;;7.80;3.10;;;;;;;23.10;36.52;100659.06;105139;1262;61398;-59
2023/05/31 09:54:56;;;;;;;10.00;3.50;;;;;;;23.09;35.70;100655.06;105122;1256;63910;-61
2023/05/31 09:57:31;;;;;;;13.10;3.00;;;;;;;23.05;34.72;100657.11;108773;1256;58005;-61
2023/05/31 09:59:59;;;;;;;6.50;2.80;;;;;;;23.04;35.30;100655.49;108794;1256;57419;-61
2023/05/31 10:02:27;;;;;;;6.30;2.70;;;;;;;23.07;35.80;100655.63;108821;1256;64981;-60
2023/05/31 10:04:56;;;;;;;9.40;2.40;;;;;;;23.09;33.76;100651.64;108814;1256;60104;-65
2023/05/31 10:07:24;;;;;;;11.30;2.70;;;;;;;23.09;33.36;100655.40;105634;1257;63804;-62
2023/05/31 10:09:51;;;;;;;6.20;2.10;;;;;;;23.11;33.83;100660.55;105505;1261;59689;-59
2023/05/31 10:12:19;;;;;;;5.80;2.20;;;;;;;23.14;32.98;100662.85;105059;1259;59656;-61
2023/05/31 10:14:49;;;;;;;6.50;2.30;;;;;;;23.15;32.14;100660.63;105043;1261;64227;-63
2023/05/31 10:17:18;;;;;;;4.40;1.90;;;;;;;23.14;31.66;100657.94;108791;1256;60195;-64
2023/05/31 10:19:49;;;;;;;9.00;2.90;;;;;;;23.12;30.97;100657.55;108766;1256;65693;-63
2023/05/31 10:22:17;;;;;;;6.40;2.50;;;;;;;23.10;30.99;100656.75;108827;1256;57614;-63
2023/05/31 10:25:04;;;;;;;7.30;2.80;;;;;;;23.11;30.91;100655.90;108743;1256;57369;-68
2023/05/31 10:27:38;;;;;;;7.50;2.20;;;;;;;23.12;30.19;100658.17;108697;1256;63517;-63
2023/05/31 10:30:06;;;;;;;5.90;2.30;;;;;;;23.13;29.55;100656.12;107028;1257;62911;-64
2023/05/31 10:32:38;;;;;;;8.80;2.70;;;;;;;23.16;29.77;100655.01;106096;1262;63845;-61
2023/05/31 10:35:06;;;;;;;5.30;1.90;;;;;;;23.21;30.02;100660.27;105173;1261;61061;-59
2023/05/31 10:37:33;;;;;;;7.00;2.40;;;;;;;23.28;30.19;100654.20;108689;1256;59474;-62
2023/05/31 10:40:15;;;;;;;9.00;2.40;;;;;;;23.35;29.84;100662.66;105549;1257;64899;-67
2023/05/31 10:42:59;;;;;;;10.20;3.00;;;;;;;23.35;29.16;100661.91;105176;1257;60601;-62
2023/05/31 10:45:30;;;;;;;11.00;3.00;;;;;;;23.34;29.06;100664.17;105180;1256;63741;-60
2023/05/31 10:48:09;;;;;;;7.60;2.90;;;;;;;23.31;29.64;100660.05;108806;1256;60751;-61
2023/05/31 10:50:56;;;;;;;5.80;2.20;;;;;;;23.33;29.83;100664.50;108801;1256;59552;-64
2023/05/31 10:53:28;;;;;;;5.50;2.20;;;;;;;23.36;29.09;100662.66;108950;1255;65228;-61
2023/05/31 10:56:15;;;;;;;6.20;2.20;;;;;;;23.39;29.00;100660.12;108954;1256;60563;-64
2023/05/31 10:58:47;;;;;;;7.50;2.60;;;;;;;23.47;29.03;100658.90;108778;1256;62454;-64
2023/05/31 11:01:18;;;;;;;6.60;2.60;;;;;;;23.57;28.90;100653.52;108803;1258;58816;-67
2023/05/31 11:03:46;;;;;;;7.00;2.20;;;;;;;23.63;28.81;100658.98;108828;1256;58226;-60
2023/05/31 11:06:17;;;;;;;8.60;2.50;;;;;;;23.67;29.04;100659.52;108829;1256;63657;-66
2023/05/31 11:09:00;;;;;;;7.60;2.10;;;;;;;23.71;29.54;100654.80;108840;1259;61340;-68
2023/05/31 11:11:28;;;;;;;5.60;2.30;;;;;;;23.77;28.85;100653.70;108837;1256;63718;-67
2023/05/31 11:14:06;;;;;;;5.00;2.50;;;;;;;23.83;29.35;100653.33;108759;1256;58474;-61
2023/05/31 11:16:55;;;;;;;5.20;2.00;;;;;;;23.88;28.45;100656.75;108929;1256;58530;-62
2023/05/31 11:19:28;;;;;;;7.60;2.10;;;;;;;23.93;28.47;100655.37;108758;1257;65912;-60
2023/05/31 11:21:57;;;;;;;5.40;2.20;;;;;;;24.02;28.47;100652.79;108825;1256;61537;-60
2023/05/31 11:24:25;;;;;;;7.70;2.10;;;;;;;24.07;28.87;100654.29;108786;1257;64258;-65
2023/05/31 11:26:53;;;;;;;7.90;2.10;;;;;;;24.10;29.17;100654.91;108839;1256;58515;-65
2023/05/31 11:29:20;;;;;;;4.40;1.80;;;;;;;24.16;29.77;100652.70;108790;1258;58145;-60
2023/05/31 11:31:51;;;;;;;7.80;2.20;;;;;;;24.21;29.86;100654.94;108926;1256;63743;-61
2023/05/31 11:34:27;;;;;;;6.20;2.80;;;;;;;24.25;28.72;100649.48;108775;1260;60133;-66
2023/05/31 11:36:59;;;;;;;5.10;2.30;;;;;;;24.36;29.10;100649.65;108820;1257;62569;-61
2023/05/31 11:39:27;;;;;;;6.10;2.30;;;;;;;24.45;28.54;100648.23;108944;1256;58242;-61
2023/05/31 11:41:55;;;;;;;5.60;1.90;;;;;;;24.51;28.83;100643.15;108916;1256;58653;-60
2023/05/31 11:44:30;;;;;;;6.70;2.40;;;;;;;24.53;28.41;100637.69;108778;1256;65007;-61